Time;durP1;ratioP1;P1;durP2;ratioP2;P2;SDS_P1;SDS_P2;PMS_P1;PMS_P2;Temp;Humidity;BMP_temperature;BMP_pressure;BME280_temperature;BME280_humidity;BME280_pressure;Samples;Min_cycle;Max_cycle;Signal;HPM_P1;HPM_P2
2023/03/15 00:00:27;;;;;;;2.67;0.60;;;2.70;99.90;;;;;;4182862;28;20052;-84
2023/03/15 00:02:28;;;;;;;5.95;0.75;;;2.70;99.90;;;;;;4183304;28;20045;-84
2023/03/15 00:04:31;;;;;;;5.25;0.57;;;3.60;99.90;;;;;;4182776;28;20087;-84
2023/03/15 00:06:33;;;;;;;3.42;1.23;;;2.60;99.90;;;;;;4167239;28;20057;-84
2023/03/15 00:08:35;;;;;;;10.48;0.70;;;3.10;99.90;;;;;;4183230;28;20117;-84
2023/03/15 00:10:39;;;;;;;7.13;0.77;;;2.50;99.90;;;;;;4190659;28;20067;-83
2023/03/15 00:12:41;;;;;;;6.07;1.05;;;2.50;99.90;;;;;;4218928;28;20475;-85
2023/03/15 00:14:44;;;;;;;5.30;1.05;;;2.50;99.90;;;;;;4230347;28;20051;-84
2023/03/15 00:16:46;;;;;;;6.20;0.85;;;3.60;99.90;;;;;;4199914;28;20056;-84
2023/03/15 00:18:47;;;;;;;4.63;0.70;;;2.50;99.90;;;;;;4198864;28;20060;-83
2023/03/15 00:20:48;;;;;;;7.60;0.93;;;2.70;99.90;;;;;;4217401;28;20739;-83
2023/03/15 00:22:50;;;;;;;4.63;0.90;;;2.50;99.90;;;;;;4198834;28;20405;-83
2023/03/15 00:24:51;;;;;;;5.25;0.88;;;2.90;99.90;;;;;;4215659;28;20513;-85
2023/03/15 00:26:54;;;;;;;7.00;1.00;;;2.50;99.90;;;;;;4205899;28;20469;-84
2023/03/15 00:28:56;;;;;;;7.18;1.00;;;2.90;99.90;;;;;;4200984;28;20025;-84
2023/03/15 00:31:17;;;;;;;4.15;0.98;;;2.40;99.90;;;;;;4201163;28;20048;-84
2023/03/15 00:33:24;;;;;;;6.50;1.08;;;2.40;99.90;;;;;;4221104;28;20039;-83
2023/03/15 00:35:25;;;;;;;7.55;0.90;;;2.70;99.90;;;;;;4218082;28;20075;-84
2023/03/15 00:37:33;;;;;;;10.18;0.75;;;2.30;99.90;;;;;;4201095;28;20151;-84
2023/03/15 00:39:36;;;;;;;9.43;0.63;;;2.30;99.90;;;;;;4200910;28;20063;-86
2023/03/15 00:41:37;;;;;;;4.93;0.73;;;2.30;99.90;;;;;;4235077;28;20032;-84
2023/03/15 00:43:39;;;;;;;2.70;0.77;;;3.20;99.90;;;;;;4235215;28;20054;-84
2023/03/15 00:45:44;;;;;;;3.50;0.63;;;2.30;99.90;;;;;;4200885;28;20029;-84
2023/03/15 00:47:52;;;;;;;5.93;1.08;;;2.30;99.90;;;;;;4200208;28;20041;-84
2023/03/15 00:50:05;;;;;;;6.55;0.60;;;2.30;99.90;;;;;;4229393;28;20372;-84
2023/03/15 00:52:37;;;;;;;8.15;1.00;;;2.40;99.90;;;;;;4199230;28;20083;-83
2023/03/15 00:54:40;;;;;;;5.03;1.17;;;2.30;99.90;;;;;;4233537;28;20126;-84
2023/03/15 00:56:43;;;;;;;5.50;0.70;;;2.70;99.90;;;;;;4221608;28;20096;-84
2023/03/15 00:58:44;;;;;;;1.13;0.60;;;2.30;99.90;;;;;;4199735;28;20083;-84
2023/03/15 01:00:46;;;;;;;17.73;1.50;;;2.40;99.90;;;;;;4183206;28;20178;-84
2023/03/15 01:02:48;;;;;;;5.45;1.75;;;2.40;99.90;;;;;;4199415;28;20080;-84
2023/03/15 01:04:50;;;;;;;9.35;0.93;;;2.30;99.90;;;;;;4203901;28;20048;-84
2023/03/15 01:06:51;;;;;;;6.57;1.00;;;2.30;99.90;;;;;;4215943;28;20075;-84
2023/03/15 01:08:54;;;;;;;6.43;1.00;;;2.30;99.90;;;;;;4234780;28;20051;-84
2023/03/15 01:10:55;;;;;;;9.20;1.75;;;2.30;99.90;;;;;;4236903;28;20110;-83
2023/03/15 01:12:56;;;;;;;12.05;1.33;;;2.20;99.90;;;;;;4220316;28;20044;-83
2023/03/15 01:14:57;;;;;;;15.32;0.98;;;2.20;99.90;;;;;;4203545;28;20501;-83
2023/03/15 01:17:01;;;;;;;7.65;1.45;;;3.30;99.90;;;;;;4204278;28;20051;-84
2023/03/15 01:19:03;;;;;;;7.68;0.60;;;2.20;99.90;;;;;;4209634;28;20053;-84
2023/03/15 01:21:09;;;;;;;10.00;1.67;;;2.10;99.90;;;;;;4244551;28;20123;-83
2023/03/15 01:23:10;;;;;;;5.35;1.45;;;2.10;99.90;;;;;;4244819;28;20039;-84
2023/03/15 01:25:11;;;;;;;2.78;0.80;;;2.70;99.90;;;;;;4227417;28;20124;-84
2023/03/15 01:27:12;;;;;;;7.05;0.90;;;2.00;99.90;;;;;;4218641;28;20116;-84
2023/03/15 01:29:13;;;;;;;6.70;0.73;;;2.70;99.90;;;;;;4220700;28;20092;-84
2023/03/15 01:31:29;;;;;;;4.80;1.05;;;1.90;99.90;;;;;;4224786;28;20099;-84
2023/03/15 01:33:29;;;;;;;5.07;0.93;;;2.00;99.90;;;;;;4209765;28;20033;-85
2023/03/15 01:35:30;;;;;;;3.83;0.50;;;3.10;99.90;;;;;;4220561;28;20087;-85
2023/03/15 01:37:33;;;;;;;6.75;1.05;;;2.30;99.90;;;;;;4220726;28;20066;-83
2023/03/15 01:39:36;;;;;;;5.43;0.95;;;2.00;99.90;;;;;;4235484;28;20024;-84
2023/03/15 01:41:39;;;;;;;3.92;0.95;;;2.00;99.90;;;;;;4220445;28;20047;-84
2023/03/15 01:43:46;;;;;;;6.63;0.55;;;2.40;99.90;;;;;;4204260;28;20032;-84
2023/03/15 01:49:29;;;;;;;6.05;1.33;;;1.30;99.90;;;;;;4230157;28;20438;-85
2023/03/15 01:52:05;;;;;;;7.35;1.13;;;1.90;99.90;;;;;;4186688;28;20096;-85
2023/03/15 01:54:16;;;;;;;7.70;0.77;;;1.80;99.90;;;;;;4220648;28;20047;-85
2023/03/15 01:56:17;;;;;;;7.15;1.30;;;2.10;99.90;;;;;;4220741;28;20043;-85
2023/03/15 01:58:22;;;;;;;4.28;1.17;;;1.80;99.90;;;;;;4220428;28;20044;-85
2023/03/15 02:00:23;;;;;;;6.50;1.30;;;2.30;99.90;;;;;;4220495;28;20051;-84
2023/03/15 02:02:25;;;;;;;5.72;0.90;;;2.10;99.90;;;;;;4201666;28;20048;-85
2023/03/15 02:04:54;;;;;;;4.95;0.80;;;1.90;99.90;;;;;;4202899;28;20108;-84
2023/03/15 02:06:58;;;;;;;6.05;0.95;;;2.30;99.90;;;;;;4208825;28;20497;-85
2023/03/15 02:09:05;;;;;;;7.78;0.75;;;1.70;99.90;;;;;;4220575;28;20052;-85
2023/03/15 02:11:06;;;;;;;8.45;0.82;;;1.70;99.90;;;;;;4185965;28;20505;-85
2023/03/15 02:13:11;;;;;;;6.05;0.90;;;1.70;99.90;;;;;;4201981;28;20044;-84
2023/03/15 02:15:13;;;;;;;11.57;1.15;;;2.20;99.90;;;;;;4184658;28;20045;-84
2023/03/15 02:17:14;;;;;;;7.80;0.88;;;2.50;99.90;;;;;;4218333;28;20048;-84
2023/03/15 02:19:46;;;;;;;9.30;2.15;;;1.70;99.90;;;;;;4218635;28;20075;-84
2023/03/15 02:22:00;;;;;;;4.00;1.00;;;2.70;99.90;;;;;;4200096;28;20068;-85
2023/03/15 02:24:18;;;;;;;7.45;1.10;;;2.30;99.90;;;;;;4217388;28;20455;-84
2023/03/15 02:26:29;;;;;;;14.07;1.35;;;1.60;99.90;;;;;;4201843;28;20091;-85
2023/03/15 02:28:36;;;;;;;3.92;0.68;;;1.60;99.90;;;;;;4220291;28;20853;-84
2023/03/15 02:30:37;;;;;;;8.98;1.45;;;2.30;99.90;;;;;;4218536;28;20044;-85
2023/03/15 02:32:39;;;;;;;8.98;1.40;;;2.20;99.90;;;;;;4217944;28;20849;-84
2023/03/15 02:34:41;;;;;;;7.75;0.98;;;1.60;99.90;;;;;;4184760;28;20053;-84
2023/03/15 02:36:42;;;;;;;7.13;1.00;;;2.70;99.90;;;;;;4218249;28;20048;-85
2023/03/15 02:38:47;;;;;;;7.35;0.90;;;1.60;99.90;;;;;;4201133;28;20045;-85
2023/03/15 02:40:50;;;;;;;6.38;1.27;;;1.60;99.90;;;;;;4219017;28;20052;-85
2023/03/15 02:42:56;;;;;;;5.72;0.85;;;1.90;99.90;;;;;;4217640;28;20039;-85
2023/03/15 02:45:00;;;;;;;6.20;1.27;;;0.70;99.90;;;;;;4184901;28;20421;-84
2023/03/15 02:47:07;;;;;;;17.90;1.75;;;1.60;99.90;;;;;;4201037;28;20145;-84
2023/03/15 02:49:11;;;;;;;10.23;2.10;;;1.50;99.90;;;;;;4184238;28;20052;-84
2023/03/15 02:51:21;;;;;;;8.43;1.92;;;1.50;99.90;;;;;;4201350;28;20087;-84
2023/03/15 02:53:23;;;;;;;7.75;0.90;;;2.60;99.90;;;;;;4184187;28;20190;-84
2023/03/15 02:55:24;;;;;;;10.45;1.30;;;1.50;99.90;;;;;;4184123;28;20048;-84
2023/03/15 02:57:25;;;;;;;3.97;0.75;;;0.60;99.90;;;;;;4218738;28;20042;-84
2023/03/15 02:59:28;;;;;;;6.97;1.20;;;2.50;99.90;;;;;;4199785;28;20082;-85
2023/03/15 03:01:30;;;;;;;7.18;0.88;;;1.40;99.90;;;;;;4199047;28;20464;-84
2023/03/15 03:03:31;;;;;;;8.25;1.20;;;1.40;99.90;;;;;;4234859;28;20127;-85
2023/03/15 03:05:32;;;;;;;4.50;1.13;;;1.30;99.90;;;;;;4200343;28;20052;-84
2023/03/15 03:07:35;;;;;;;5.80;1.55;;;1.40;99.90;;;;;;4199945;28;20048;-85
2023/03/15 03:09:35;;;;;;;8.85;0.77;;;1.30;99.90;;;;;;4200169;28;20051;-85
2023/03/15 03:11:37;;;;;;;4.03;0.50;;;1.30;99.90;;;;;;4235523;28;20064;-85
2023/03/15 03:13:38;;;;;;;5.75;0.90;;;2.10;99.90;;;;;;4217308;28;20052;-84
2023/03/15 03:15:39;;;;;;;3.17;0.73;;;1.70;99.90;;;;;;4200099;28;20425;-84
2023/03/15 03:17:41;;;;;;;1.77;0.73;;;1.20;99.90;;;;;;4200391;28;20127;-84
2023/03/15 03:19:42;;;;;;;4.05;0.68;;;1.70;99.90;;;;;;4212702;28;20060;-85
2023/03/15 03:21:43;;;;;;;3.47;0.90;;;1.20;99.90;;;;;;4199919;28;20465;-85
2023/03/15 03:23:47;;;;;;;5.15;0.77;;;1.20;99.90;;;;;;4234720;28;20048;-84
2023/03/15 03:25:48;;;;;;;3.80;0.98;;;1.20;99.90;;;;;;4202434;28;20469;-84
2023/03/15 03:27:49;;;;;;;3.85;0.47;;;1.30;99.90;;;;;;4234883;28;20040;-84
2023/03/15 03:29:51;;;;;;;5.00;0.90;;;1.30;99.90;;;;;;4234388;28;20043;-84
2023/03/15 03:31:54;;;;;;;3.22;0.70;;;1.30;99.90;;;;;;4215952;28;20055;-84
2023/03/15 03:33:56;;;;;;;7.18;1.15;;;0.90;99.90;;;;;;4234730;28;20043;-85
2023/03/15 03:36:03;;;;;;;7.10;1.00;;;1.20;99.90;;;;;;4219559;28;20071;-85
2023/03/15 03:38:05;;;;;;;4.97;0.95;;;1.20;99.90;;;;;;4222173;28;20036;-85
2023/03/15 03:40:07;;;;;;;4.35;0.70;;;2.50;99.90;;;;;;4186015;28;20049;-85
2023/03/15 03:42:11;;;;;;;3.50;0.70;;;1.20;99.90;;;;;;4201807;28;20140;-86
2023/03/15 03:44:11;;;;;;;6.35;1.00;;;1.20;99.90;;;;;;4220467;28;20487;-85
2023/03/15 03:46:13;;;;;;;7.28;0.85;;;1.20;99.90;;;;;;4185526;28;20045;-86
2023/03/15 03:48:14;;;;;;;7.00;0.68;;;1.10;99.90;;;;;;4221118;28;20044;-84
2023/03/15 03:50:16;;;;;;;9.95;0.82;;;1.10;99.90;;;;;;4187509;28;20108;-86
2023/03/15 03:52:23;;;;;;;5.72;0.70;;;1.10;99.90;;;;;;4188083;28;20455;-85
2023/03/15 03:54:25;;;;;;;7.57;1.20;;;1.10;99.90;;;;;;4194408;28;20421;-84
2023/03/15 03:56:26;;;;;;;2.92;0.68;;;1.00;99.90;;;;;;4240380;28;20050;-85
2023/03/15 03:58:33;;;;;;;5.25;0.45;;;2.40;99.90;;;;;;4205323;28;20072;-85
2023/03/15 04:00:42;;;;;;;4.85;1.00;;;2.30;99.90;;;;;;4221006;28;20055;-84
2023/03/15 04:02:45;;;;;;;11.93;1.30;;;1.30;99.90;;;;;;4239153;28;20048;-84
2023/03/15 04:04:49;;;;;;;5.43;0.50;;;0.90;99.90;;;;;;4204265;28;20127;-84
2023/03/15 04:06:50;;;;;;;6.15;1.10;;;1.00;99.90;;;;;;4187369;28;20047;-85
2023/03/15 04:08:51;;;;;;;4.22;0.85;;;0.90;99.90;;;;;;4204790;28;20045;-84
2023/03/15 04:10:54;;;;;;;9.50;2.50;;;1.00;99.90;;;;;;4231551;28;20079;-84
2023/03/15 04:12:56;;;;;;;4.97;0.60;;;0.70;99.90;;;;;;4224834;28;20054;-85
2023/03/15 04:15:06;;;;;;;4.68;0.70;;;0.90;99.90;;;;;;4223598;28;20044;-85
2023/03/15 04:17:09;;;;;;;2.80;0.77;;;0.80;99.90;;;;;;4208023;28;20044;-84
2023/03/15 04:19:11;;;;;;;2.35;1.08;;;0.70;99.90;;;;;;4206661;28;20044;-84
2023/03/15 04:21:14;;;;;;;3.53;0.90;;;1.30;99.90;;;;;;4241924;28;20389;-84
2023/03/15 04:23:20;;;;;;;3.42;0.77;;;0.70;99.90;;;;;;4214748;28;20040;-84
2023/03/15 04:25:28;;;;;;;4.20;0.90;;;1.50;99.90;;;;;;4205157;28;20045;-84
2023/03/15 04:27:29;;;;;;;4.28;0.60;;;1.80;99.90;;;;;;4205339;28;20064;-84
2023/03/15 04:29:32;;;;;;;7.82;0.80;;;0.90;99.90;;;;;;4190104;28;20481;-83
2023/03/15 04:31:36;;;;;;;3.58;0.60;;;0.70;99.90;;;;;;4221543;28;20084;-84
2023/03/15 04:33:39;;;;;;;4.55;0.90;;;0.70;99.90;;;;;;4218109;28;20103;-84
2023/03/15 04:35:41;;;;;;;6.57;0.75;;;-0.20;99.90;;;;;;4184850;28;20057;-84
2023/03/15 04:37:44;;;;;;;6.10;0.95;;;1.70;99.90;;;;;;4185056;28;20078;-84
2023/03/15 04:39:47;;;;;;;9.50;0.63;;;0.60;99.90;;;;;;4202446;28;20104;-84
2023/03/15 04:41:49;;;;;;;5.38;1.05;;;0.70;99.90;;;;;;4219078;28;20134;-85
2023/03/15 04:43:50;;;;;;;3.72;0.60;;;1.60;99.90;;;;;;4219065;28;20416;-84
2023/03/15 04:45:52;;;;;;;4.80;0.43;;;0.60;99.90;;;;;;4218225;28;20044;-84
2023/03/15 04:47:54;;;;;;;5.55;1.02;;;0.60;99.90;;;;;;4222939;28;20036;-84
2023/03/15 04:49:56;;;;;;;1.75;0.40;;;0.60;99.90;;;;;;4222381;28;20052;-84
2023/03/15 04:51:58;;;;;;;7.82;0.93;;;0.60;99.90;;;;;;4187418;28;20052;-84
2023/03/15 04:54:03;;;;;;;2.60;0.45;;;0.60;99.90;;;;;;4222125;28;20177;-84
2023/03/15 04:56:05;;;;;;;3.28;1.23;;;0.60;99.90;;;;;;4204279;28;20045;-85
2023/03/15 04:58:14;;;;;;;2.08;0.43;;;0.60;99.90;;;;;;4222759;28;20080;-84
2023/03/15 05:00:15;;;;;;;3.15;0.57;;;0.60;99.90;;;;;;4206329;28;20079;-85
2023/03/15 05:02:18;;;;;;;3.67;0.77;;;0.50;99.90;;;;;;4189015;28;20076;-84
2023/03/15 05:04:19;;;;;;;2.30;0.30;;;0.60;99.90;;;;;;4228672;28;20442;-84
2023/03/15 05:06:21;;;;;;;6.70;0.68;;;-0.50;99.90;;;;;;4188579;28;20080;-85
2023/03/15 05:08:24;;;;;;;2.67;0.50;;;0.50;99.90;;;;;;4204872;28;20551;-85
2023/03/15 05:10:25;;;;;;;4.95;0.60;;;0.10;99.90;;;;;;4170881;28;20706;-84
2023/03/15 05:12:28;;;;;;;3.03;0.60;;;0.60;99.90;;;;;;4188897;28;20456;-84
2023/03/15 05:14:29;;;;;;;4.35;0.85;;;1.40;99.90;;;;;;4191240;28;20493;-85
2023/03/15 05:16:32;;;;;;;6.43;0.50;;;0.00;99.90;;;;;;4189863;28;20059;-84
2023/03/15 05:18:33;;;;;;;7.57;1.98;;;0.70;99.90;;;;;;4172213;28;20109;-84
2023/03/15 05:20:34;;;;;;;4.72;0.70;;;1.70;99.90;;;;;;4203694;28;20051;-85
2023/03/15 05:22:38;;;;;;;6.80;0.88;;;0.70;99.90;;;;;;4208022;28;20044;-85
2023/03/15 05:24:44;;;;;;;6.18;0.70;;;0.60;99.90;;;;;;4190649;28;20049;-85
2023/03/15 05:26:46;;;;;;;3.60;0.63;;;0.60;99.90;;;;;;4208394;28;20115;-85
2023/03/15 05:28:47;;;;;;;4.18;0.82;;;1.20;99.90;;;;;;4208061;28;20048;-85
2023/03/15 05:30:51;;;;;;;4.50;0.80;;;0.60;99.90;;;;;;4208514;28;20044;-83
2023/03/15 05:32:52;;;;;;;6.15;0.70;;;0.70;99.90;;;;;;4208038;28;20037;-84
2023/03/15 05:35:01;;;;;;;2.45;0.50;;;0.60;99.90;;;;;;4191885;28;20056;-85
2023/03/15 05:37:02;;;;;;;2.53;0.77;;;0.60;99.90;;;;;;4192161;28;20037;-84
2023/03/15 05:39:04;;;;;;;1.25;0.60;;;0.70;99.90;;;;;;4191380;28;20053;-85
2023/03/15 05:41:16;;;;;;;6.10;0.60;;;0.60;99.90;;;;;;4175270;28;20515;-85
2023/03/15 05:43:18;;;;;;;7.38;0.75;;;0.60;99.90;;;;;;4189929;28;20106;-84
2023/03/15 05:45:19;;;;;;;3.38;0.50;;;1.20;99.90;;;;;;4189683;28;20501;-85
2023/03/15 05:47:22;;;;;;;5.65;1.45;;;0.60;99.90;;;;;;4193380;28;20132;-85
2023/03/15 05:49:30;;;;;;;3.05;0.60;;;1.80;99.90;;;;;;4175897;28;20529;-85
2023/03/15 05:51:31;;;;;;;4.35;0.80;;;0.60;99.90;;;;;;4193081;28;20037;-85
2023/03/15 05:53:38;;;;;;;7.28;0.80;;;0.00;99.90;;;;;;4191869;28;20051;-83
2023/03/15 05:55:40;;;;;;;6.30;0.70;;;0.70;99.90;;;;;;4208079;28;20051;-85
2023/03/15 05:57:43;;;;;;;6.22;0.98;;;0.80;99.90;;;;;;4171748;28;20101;-85
2023/03/15 05:59:45;;;;;;;5.63;1.20;;;1.70;99.90;;;;;;4174610;28;20053;-85
2023/03/15 06:01:48;;;;;;;4.20;0.80;;;0.70;99.90;;;;;;4202294;28;20048;-85
2023/03/15 06:03:51;;;;;;;4.90;0.90;;;1.80;99.90;;;;;;4190729;28;20045;-84
2023/03/15 06:05:52;;;;;;;4.85;1.05;;;0.80;99.90;;;;;;4208916;28;20059;-84
2023/03/15 06:07:57;;;;;;;4.20;1.08;;;0.40;99.90;;;;;;4207596;28;20056;-84
2023/03/15 06:09:58;;;;;;;3.70;1.45;;;1.10;99.90;;;;;;4208275;28;20044;-84
2023/03/15 06:11:59;;;;;;;6.78;1.00;;;0.80;99.90;;;;;;4205469;28;20048;-84
2023/03/15 06:14:03;;;;;;;8.25;1.33;;;1.00;99.90;;;;;;4208463;28;20453;-85
2023/03/15 06:16:06;;;;;;;8.75;1.00;;;0.80;99.90;;;;;;4191613;28;20056;-84
2023/03/15 06:18:07;;;;;;;6.43;0.52;;;0.80;99.90;;;;;;4191925;28;20069;-85
2023/03/15 06:20:09;;;;;;;5.75;0.98;;;0.90;99.90;;;;;;4209679;28;20048;-85
2023/03/15 06:22:10;;;;;;;10.60;0.90;;;0.80;99.90;;;;;;4191427;28;20545;-84
2023/03/15 06:24:11;;;;;;;8.90;1.10;;;0.80;99.90;;;;;;4190019;28;20045;-85
2023/03/15 06:26:14;;;;;;;2.90;0.95;;;0.90;99.90;;;;;;4206998;28;20127;-85
2023/03/15 06:28:14;;;;;;;6.20;1.08;;;1.50;99.90;;;;;;4206833;28;20052;-84
2023/03/15 06:30:15;;;;;;;8.85;0.82;;;0.80;99.90;;;;;;4191337;28;20193;-85
2023/03/15 06:32:17;;;;;;;8.23;2.50;;;0.90;99.90;;;;;;4190929;28;20053;-85
2023/03/15 06:34:20;;;;;;;4.53;1.83;;;1.30;99.90;;;;;;4185129;28;20045;-84
2023/03/15 06:36:23;;;;;;;7.00;1.10;;;0.20;99.90;;;;;;4209119;28;20049;-84
2023/03/15 06:38:25;;;;;;;4.50;0.80;;;1.00;99.90;;;;;;4206499;28;20076;-84
2023/03/15 06:40:27;;;;;;;9.32;1.85;;;1.00;99.90;;;;;;4205919;28;20061;-84
2023/03/15 06:42:29;;;;;;;6.50;1.30;;;1.00;99.90;;;;;;4210479;28;20411;-84
2023/03/15 06:44:30;;;;;;;9.10;0.82;;;0.00;99.90;;;;;;4189326;28;20045;-84
2023/03/15 06:46:33;;;;;;;5.68;1.05;;;1.10;99.90;;;;;;4207638;28;20052;-85
2023/03/15 06:48:34;;;;;;;8.52;0.85;;;1.10;99.90;;;;;;4207119;28;20111;-85
2023/03/15 06:50:35;;;;;;;11.38;1.20;;;1.10;99.90;;;;;;4208042;28;20500;-84
2023/03/15 06:52:37;;;;;;;4.47;1.10;;;0.60;99.90;;;;;;4202316;28;20048;-84
2023/03/15 06:54:39;;;;;;;9.00;0.95;;;1.20;99.90;;;;;;4206963;28;20455;-85
2023/03/15 06:56:41;;;;;;;4.60;1.05;;;1.20;99.90;;;;;;4189323;28;20051;-84
2023/03/15 06:58:43;;;;;;;8.88;1.33;;;0.80;99.90;;;;;;4189511;28;20052;-85
2023/03/15 07:00:47;;;;;;;3.80;0.75;;;1.40;99.90;;;;;;4207313;28;20045;-85
2023/03/15 07:02:48;;;;;;;8.77;1.20;;;1.40;99.90;;;;;;4189630;28;20045;-85
2023/03/15 07:04:50;;;;;;;7.15;1.10;;;2.40;99.90;;;;;;4190729;28;20057;-85
2023/03/15 07:06:51;;;;;;;7.97;0.98;;;1.50;99.90;;;;;;4204216;28;20135;-82
2023/03/15 07:08:53;;;;;;;9.15;1.83;;;1.50;99.90;;;;;;4207115;28;20045;-81
2023/03/15 07:10:54;;;;;;;5.72;1.13;;;2.40;99.90;;;;;;4208616;28;20059;-81
2023/03/15 07:12:54;;;;;;;6.47;1.02;;;1.70;99.90;;;;;;4222572;28;20508;-81
2023/03/15 07:14:55;;;;;;;9.43;2.30;;;1.80;99.90;;;;;;4219823;28;20044;-81
2023/03/15 07:16:57;;;;;;;6.97;0.88;;;1.90;99.90;;;;;;4213497;28;20042;-82
2023/03/15 07:19:00;;;;;;;8.52;1.70;;;1.90;99.90;;;;;;4208118;28;20059;-81
2023/03/15 07:21:05;;;;;;;6.28;1.20;;;2.80;99.90;;;;;;4209792;28;20040;-82
2023/03/15 07:23:06;;;;;;;2.10;0.90;;;2.10;99.90;;;;;;4207762;28;20152;-82
2023/03/15 07:25:08;;;;;;;7.72;1.23;;;2.20;99.90;;;;;;4209412;28;20031;-82
2023/03/15 07:27:12;;;;;;;4.72;1.70;;;2.30;99.90;;;;;;4205236;28;20105;-81
2023/03/15 07:29:14;;;;;;;3.33;1.05;;;3.70;99.90;;;;;;4212545;28;20032;-82
2023/03/15 07:31:15;;;;;;;7.68;1.25;;;2.70;99.90;;;;;;4208874;28;20047;-81
2023/03/15 07:33:16;;;;;;;8.10;1.42;;;2.60;99.90;;;;;;4189557;28;20041;-82
2023/03/15 07:35:17;;;;;;;4.70;0.88;;;3.80;99.90;;;;;;4212815;28;20099;-84
2023/03/15 07:37:19;;;;;;;7.88;1.08;;;2.80;99.90;;;;;;4210096;28;20033;-84
2023/03/15 07:39:20;;;;;;;5.47;1.90;;;3.10;99.90;;;;;;4200036;28;20547;-83
2023/03/15 07:41:22;;;;;;;8.55;1.23;;;3.50;99.90;;;;;;4199178;28;20037;-84
2023/03/15 07:43:24;;;;;;;4.57;1.35;;;4.00;99.90;;;;;;4215611;28;20072;-84
2023/03/15 07:45:25;;;;;;;10.10;1.38;;;4.40;99.90;;;;;;4182301;28;20551;-84
2023/03/15 07:47:26;;;;;;;3.80;0.60;;;4.60;99.90;;;;;;4181145;28;20452;-84
2023/03/15 07:49:27;;;;;;;3.60;1.00;;;4.80;99.90;;;;;;4197363;28;20123;-83
2023/03/15 07:51:28;;;;;;;5.22;1.02;;;5.00;99.90;;;;;;4199160;28;20041;-84
2023/03/15 07:53:29;;;;;;;5.28;1.23;;;5.30;99.90;;;;;;4197683;28;20047;-83
2023/03/15 07:55:31;;;;;;;3.15;1.15;;;5.50;99.90;;;;;;4199139;28;20029;-84
2023/03/15 07:57:33;;;;;;;4.90;0.93;;;5.80;99.90;;;;;;4181569;28;20060;-84
2023/03/15 07:59:36;;;;;;;8.75;1.35;;;6.20;99.90;;;;;;4199374;28;20481;-84
2023/03/15 08:01:38;;;;;;;5.35;1.52;;;6.90;99.90;;;;;;4198783;28;20041;-83
2023/03/15 08:03:38;;;;;;;13.18;2.00;;;7.40;99.90;;;;;;4197887;28;20472;-84
2023/03/15 08:05:39;;;;;;;8.10;1.35;;;7.80;99.90;;;;;;4199352;28;20047;-85
2023/03/15 08:07:42;;;;;;;6.90;1.60;;;8.20;99.90;;;;;;4181315;28;21008;-84
2023/03/15 08:09:49;;;;;;;5.82;1.02;;;9.30;99.90;;;;;;4199061;28;20079;-84
2023/03/15 08:11:50;;;;;;;6.07;1.02;;;8.60;99.90;;;;;;4211049;28;20454;-83
2023/03/15 08:13:51;;;;;;;5.93;1.05;;;8.90;99.90;;;;;;4197807;28;20049;-84
2023/03/15 08:15:51;;;;;;;7.38;0.95;;;9.20;99.90;;;;;;4197354;28;20056;-85
2023/03/15 08:17:53;;;;;;;6.82;1.55;;;9.40;99.90;;;;;;4197771;28;20052;-84
2023/03/15 08:19:54;;;;;;;10.07;1.60;;;9.60;99.90;;;;;;4200085;28;20055;-85
2023/03/15 08:21:56;;;;;;;3.63;0.98;;;9.80;99.90;;;;;;4200778;28;20059;-84
2023/03/15 08:23:56;;;;;;;8.00;1.50;;;9.60;99.90;;;;;;4200256;28;20045;-84
2023/03/15 08:25:58;;;;;;;8.05;1.52;;;9.30;99.90;;;;;;4201178;28;20051;-84
2023/03/15 08:27:59;;;;;;;13.13;1.10;;;9.60;99.90;;;;;;4183767;28;20079;-83
2023/03/15 08:30:00;;;;;;;7.35;1.13;;;9.80;99.90;;;;;;4221492;28;20126;-83
2023/03/15 08:32:02;;;;;;;10.07;1.92;;;10.30;99.90;;;;;;4200218;28;20436;-84
2023/03/15 08:34:02;;;;;;;12.43;1.67;;;10.50;99.90;;;;;;4235295;28;20035;-84
2023/03/15 08:36:03;;;;;;;11.80;2.15;;;10.40;99.90;;;;;;4217235;28;20054;-83
2023/03/15 08:38:04;;;;;;;6.20;1.83;;;10.50;99.90;;;;;;4234658;28;20035;-84
2023/03/15 08:40:10;;;;;;;3.00;0.70;;;10.50;99.90;;;;;;4211658;28;20089;-84
2023/03/15 08:42:11;;;;;;;6.78;1.10;;;10.50;99.90;;;;;;4235423;28;20044;-84
2023/03/15 08:44:11;;;;;;;6.30;0.70;;;10.70;99.90;;;;;;4216044;28;20032;-85
2023/03/15 08:46:12;;;;;;;4.82;0.88;;;11.20;99.90;;;;;;4199683;28;20045;-84
2023/03/15 08:48:13;;;;;;;5.90;0.75;;;11.20;99.90;;;;;;4218317;28;20044;-82
2023/03/15 08:50:15;;;;;;;6.20;0.85;;;11.20;99.90;;;;;;4217843;28;20047;-83
2023/03/15 08:52:16;;;;;;;5.07;1.40;;;11.70;99.90;;;;;;4199808;28;20077;-82
2023/03/15 08:54:17;;;;;;;6.63;0.88;;;11.90;99.90;;;;;;4181562;28;20092;-82
2023/03/15 08:56:19;;;;;;;2.72;0.70;;;12.40;99.90;;;;;;4198944;28;20497;-83
2023/03/15 08:58:20;;;;;;;4.93;1.48;;;12.40;99.90;;;;;;4202105;28;20052;-82
2023/03/15 09:00:25;;;;;;;4.22;0.65;;;12.80;99.90;;;;;;4198918;28;20064;-82
2023/03/15 09:02:29;;;;;;;8.38;1.40;;;12.90;98.90;;;;;;4198540;28;20081;-83
2023/03/15 09:04:31;;;;;;;5.88;0.80;;;13.10;98.10;;;;;;4209600;28;20121;-82
2023/03/15 09:06:32;;;;;;;6.85;2.10;;;13.30;98.00;;;;;;4233539;28;20050;-84
2023/03/15 09:08:34;;;;;;;4.13;0.90;;;13.60;97.00;;;;;;4218126;28;20052;-84
2023/03/15 09:10:35;;;;;;;4.03;0.80;;;13.40;96.20;;;;;;4228850;28;20036;-84
2023/03/15 09:12:37;;;;;;;4.55;1.00;;;13.50;96.50;;;;;;4185119;28;20048;-83
2023/03/15 09:14:38;;;;;;;3.92;0.90;;;13.80;95.60;;;;;;4219361;28;20096;-83
2023/03/15 09:16:38;;;;;;;8.45;1.20;;;13.70;94.50;;;;;;4220713;28;20420;-82
2023/03/15 09:18:44;;;;;;;5.10;0.93;;;13.70;94.70;;;;;;4234414;28;20046;-81
2023/03/15 09:20:45;;;;;;;3.40;1.20;;;13.90;94.00;;;;;;4217431;28;20044;-82
2023/03/15 09:22:51;;;;;;;8.43;0.80;;;13.80;93.50;;;;;;4202613;28;20044;-82
2023/03/15 09:24:52;;;;;;;7.35;0.65;;;14.30;93.10;;;;;;4233903;28;20039;-82
2023/03/15 09:26:53;;;;;;;3.35;0.90;;;14.60;92.70;;;;;;4234411;28;20254;-83
2023/03/15 09:28:53;;;;;;;4.30;0.70;;;14.90;92.30;;;;;;4233979;28;20518;-82
2023/03/15 09:30:54;;;;;;;6.25;1.20;;;15.10;91.50;;;;;;4233730;28;20444;-83
2023/03/15 09:32:55;;;;;;;3.78;0.90;;;15.00;89.00;;;;;;4234744;28;20123;-82
2023/03/15 09:34:56;;;;;;;6.80;0.70;;;15.10;90.00;;;;;;4234631;28;20039;-83
2023/03/15 09:36:57;;;;;;;6.97;0.70;;;15.20;89.00;;;;;;4216273;28;20048;-82
2023/03/15 09:38:58;;;;;;;3.22;1.08;;;15.40;87.60;;;;;;4232312;28;20514;-86
2023/03/15 09:40:59;;;;;;;6.07;0.93;;;15.50;86.10;;;;;;4218000;28;20050;-88
2023/03/15 09:43:09;;;;;;;7.30;1.17;;;15.50;84.20;;;;;;4217534;28;20392;-88
2023/03/15 09:45:39;;;;;;;5.03;0.90;;;15.50;79.10;;;;;;4183099;28;20045;-89
2023/03/15 09:48:08;;;;;;;4.32;1.27;;;15.40;78.30;;;;;;4198820;28;20044;-88
2023/03/15 09:50:21;;;;;;;6.32;1.20;;;15.60;79.40;;;;;;4181561;28;20137;-88
2023/03/15 09:52:47;;;;;;;8.38;1.48;;;15.60;80.50;;;;;;4201780;28;20044;-89
2023/03/15 09:54:53;;;;;;;3.78;1.00;;;15.60;75.80;;;;;;4190967;28;20101;-88
2023/03/15 09:57:07;;;;;;;7.40;1.30;;;15.80;79.10;;;;;;4198494;28;20060;-89
2023/03/15 09:59:09;;;;;;;6.15;1.08;;;15.90;75.40;;;;;;4230566;28;20040;-89
2023/03/15 10:01:14;;;;;;;2.78;0.75;;;15.50;76.50;;;;;;4218604;28;20066;-85
2023/03/15 10:03:30;;;;;;;3.50;0.65;;;15.20;74.40;;;;;;4216864;28;20401;-84
2023/03/15 10:05:40;;;;;;;5.65;0.80;;;14.90;74.60;;;;;;4216699;28;20055;-83
2023/03/15 10:07:41;;;;;;;5.78;1.10;;;14.40;74.90;;;;;;4215311;28;20496;-83
2023/03/15 10:09:42;;;;;;;3.85;0.70;;;14.20;76.90;;;;;;4198822;28;20048;-83
2023/03/15 10:11:49;;;;;;;8.00;1.20;;;13.70;74.20;;;;;;4216414;28;20052;-82
2023/03/15 10:14:38;;;;;;;6.05;0.85;;;13.80;76.50;;;;;;4215615;28;20439;-83
2023/03/15 10:16:47;;;;;;;3.50;0.70;;;13.70;72.60;;;;;;4208564;28;20086;-82
2023/03/15 10:19:00;;;;;;;7.03;1.05;;;13.80;77.50;;;;;;4233459;28;20044;-82
2023/03/15 10:21:12;;;;;;;10.82;1.00;;;13.70;76.20;;;;;;4199205;28;20385;-82
2023/03/15 10:23:19;;;;;;;8.02;0.90;;;13.80;76.20;;;;;;4233721;28;20449;-83
2023/03/15 10:25:26;;;;;;;4.63;0.75;;;13.60;77.20;;;;;;4215647;28;20047;-83
2023/03/15 10:27:42;;;;;;;5.60;0.70;;;13.50;76.20;;;;;;4215761;28;20059;-83
2023/03/15 10:29:49;;;;;;;5.30;0.75;;;13.40;75.80;;;;;;4234381;28;20050;-83
2023/03/15 10:31:51;;;;;;;7.00;0.90;;;13.40;75.70;;;;;;4215698;28;20056;-83
2023/03/15 10:33:53;;;;;;;3.30;1.00;;;13.00;75.80;;;;;;4231157;28;20075;-83
2023/03/15 10:35:54;;;;;;;5.05;0.68;;;12.60;76.10;;;;;;4198551;28;20068;-84
2023/03/15 10:37:55;;;;;;;4.55;0.88;;;12.80;76.50;;;;;;4198631;28;20398;-83
2023/03/15 10:39:58;;;;;;;4.00;1.33;;;13.00;76.00;;;;;;4219210;28;20042;-85
2023/03/15 10:41:59;;;;;;;5.63;1.25;;;13.50;76.10;;;;;;4232755;28;20047;-83
2023/03/15 10:44:04;;;;;;;3.95;0.90;;;13.70;75.60;;;;;;4233386;28;20169;-83
2023/03/15 10:46:10;;;;;;;4.40;1.30;;;13.50;73.20;;;;;;4215362;28;20044;-83
2023/03/15 10:48:11;;;;;;;4.93;1.45;;;13.40;73.00;;;;;;4233103;28;20400;-83
2023/03/15 10:50:28;;;;;;;8.18;0.88;;;13.40;73.80;;;;;;4215225;28;20044;-83
2023/03/15 10:52:39;;;;;;;10.90;0.70;;;13.70;73.40;;;;;;4232459;28;20082;-83